ADDS METAR Data INFO
IDs: Format: Raw Decoded Include TAF

Data at: 0858 UTC 19 Jun 2018

KHRI 190853Z AUTO 16004KT 10SM OVC080 17/16 A3003 RMK AO2 RAE45 SLP167 P0000 60001 T01720156 50001
KHRI 190753Z AUTO 14004KT 10SM -RA FEW060 FEW075 OVC090 17/16 A3004 RMK AO2 RAE0659B34 SLP168 P0000 T01720156 402170172
KHRI 190653Z AUTO 10003KT 10SM -RA OVC100 17/16 A3003 RMK AO2 SLP166 P0001 T01720156
KHRI 190553Z AUTO 00000KT 10SM -RA FEW070 OVC100 18/16 A3003 RMK AO2 RAB40 SLP165 P0000 60000 T01780156 10206 20172 52007
KHRI 190453Z AUTO 10004KT 10SM BKN110 17/15 A3002 RMK AO2 SLP163 T01720150
KHRI 190353Z AUTO 10004KT 10SM FEW110 18/15 A3001 RMK AO2 SLP159 T01830150
KHRI 190253Z AUTO 11004KT 10SM BKN100 20/15 A3001 RMK AO2 RAE04 SLP158 P0000 60000 T02000150 51008
KHRI 190153Z AUTO 12004KT 10SM -RA FEW075 OVC100 20/14 A3000 RMK AO2 RAB17E25B43 SLP156 P0000 T02000144
KHRI 190053Z AUTO 10SM FEW080 BKN120 21/14 A2999 RMK AO2 RAB32E44 SLP153 P0000 T02060144
KHRI 182353Z AUTO 22003KT 10SM BKN100 OVC110 21/15 A2998 RMK AO2 RAE47 SLP149 P0001 60007 T02060150 10217 20200 50004
KHRI 182253Z AUTO 00000KT 10SM -RA FEW075 OVC095 20/15 A2999 RMK AO2 SLP150 P0001 T02000150
KHRI 182153Z AUTO 23006KT 10SM -RA OVC095 20/15 A2998 RMK AO2 SLP147 P0001 T02000150
KHRI 182053Z AUTO 23005KT 10SM -RA OVC095 20/15 A2997 RMK AO2 SLP145 P0000 60004 T02000150 52014
KHRI 181953Z AUTO 27005KT 10SM -RA OVC095 21/16 A2995 RMK AO2 SLP139 P0003 T02060156
KHRI 181853Z AUTO 21004KT 10SM -RA OVC095 21/16 A2995 RMK AO2 SLP136 P0001 T02060156
KHRI 181753Z AUTO 12003KT 10SM -RA OVC090 21/14 A2993 RMK AO2 RAB04 SLP129 P0000 60000 T02110144 10217 20183 53017
KHRI 181653Z AUTO 02003KT 10SM OVC090 21/13 A2990 RMK AO2 SLP120 T02110128
KHRI 181553Z AUTO 26004KT 10SM OVC095 21/13 A2989 RMK AO2 SLP116 T02110128
KHRI 181453Z AUTO 00000KT 10SM OVC095 21/12 A2988 RMK AO2 SLP112 T02060117 53014
KHRI 181353Z AUTO 25004KT 10SM OVC100 20/12 A2986 RMK AO2 SLP105 T02000117
KHRI 181253Z AUTO 20003KT 10SM OVC100 19/13 A2985 RMK AO2 SLP103 T01890133
KHRI 181153Z AUTO 17003KT 10SM FEW110 18/13 A2983 RMK AO2 SLP097 60000 T01830133 10217 20183 53004
KHRI 181053Z AUTO 26005KT 10SM OVC110 20/12 A2983 RMK AO2 SLP093 T02000122
KHRI 180953Z AUTO 24003KT 10SM OVC110 19/13 A2982 RMK AO2 RAE10 SLP092 P0000 T01940133
KHRI 180853Z AUTO 26004KT 10SM -RA OVC100 20/13 A2982 RMK AO2 RAB44 SLP092 P0000 60000 T02000128 55006
KHRI 180753Z AUTO 25007KT 10SM OVC100 21/13 A2982 RMK AO2 RAB0656E46 SLP091 P0000 T02060128 403110122
KHRI 180653Z AUTO 27004KT 10SM BKN100 OVC120 21/12 A2983 RMK AO2 RAB04E30 SLP095 P0000 T02110122
KHRI 180553Z AUTO 06005KT 10SM BKN100 OVC110 22/12 A2984 RMK AO2 RAB44E53 SLP099 P0000 60000 T02170122 10289 20211 53010
KHRI 180453Z AUTO 36003KT 10SM FEW120 24/09 A2983 RMK AO2 SLP095 T02390094
KHRI 180353Z AUTO 04005KT 10SM OVC110 25/09 A2981 RMK AO2 SLP089 T02500094
KHRI 180253Z AUTO 05004KT 10SM FEW080 OVC100 26/12 A2981 RMK AO2 SLP088 T02560117 53004
KHRI 180153Z AUTO 08003KT 10SM SCT120 27/09 A2979 RMK AO2 SLP083 T02670094
KHRI 180053Z AUTO 08009KT 10SM SCT110 26/11 A2979 RMK AO2 SLP083 T02610106
KHRI 172353Z AUTO 06014KT 10SM CLR 29/08 A2980 RMK AO2 SLP084 T02940083 10311 20239 56006
KHRI 172253Z AUTO 05009G16KT 10SM FEW100 29/07 A2980 RMK AO2 SLP086 T02940067
KHRI 172153Z AUTO 06009KT 030V090 10SM FEW090 30/07 A2980 RMK AO2 SLP087 T03000067